Time;durP1;ratioP1;P1;durP2;ratioP2;P2;SDS_P1;SDS_P2;PMS_P1;PMS_P2;Temp;Humidity;BMP_temperature;BMP_pressure;BME280_temperature;BME280_humidity;BME280_pressure;Samples;Min_cycle;Max_cycle;Signal;HPM_P1;HPM_P2
2022/09/22 18:26:48;;;;;;;3.65;1.70;;;15.50;80.70;;;12.97;66.25;101289.56;5073156;27;102708;-84
2022/09/22 18:31:53;;;;;;;2.55;1.58;;;13.80;87.80;;;11.50;73.66;101290.31;4993842;28;103497;-86
2022/09/22 18:34:20;;;;;;;3.95;1.70;;;13.00;91.10;;;10.86;76.33;101281.50;4972631;28;104894;-85
2022/09/22 18:42:26;;;;;;;4.47;2.15;;;11.60;94.30;;;9.90;82.44;101275.63;5035876;27;104680;-84
2022/09/22 18:44:52;;;;;;;4.00;2.03;;;11.40;95.00;;;9.86;82.94;101290.69;5006890;27;103423;-85
2022/09/22 18:47:21;;;;;;;4.72;1.95;;;11.20;95.40;;;9.75;83.93;101289.34;5012400;27;108325;-86
2022/09/22 18:49:49;;;;;;;6.18;2.03;;;11.10;95.70;;;9.52;84.79;101267.72;5016722;28;104998;-78
2022/09/22 18:52:15;;;;;;;3.63;1.70;;;11.00;96.00;;;9.55;84.93;101288.31;5011940;28;104923;-77
2022/09/22 18:54:42;;;;;;;5.72;1.73;;;11.00;96.20;;;9.60;85.06;101300.31;5001326;28;102667;-77
2022/09/22 18:57:12;;;;;;;2.85;1.60;;;10.90;96.20;;;9.48;85.08;101277.34;5004499;28;104832;-78
2022/09/22 18:59:39;;;;;;;2.95;1.77;;;10.90;96.20;;;9.45;85.23;101284.03;5010297;28;105000;-76
2022/09/22 19:02:05;;;;;;;2.65;1.45;;;10.90;96.40;;;9.45;86.24;101302.25;5009500;28;103505;-77
2022/09/22 19:04:31;;;;;;;3.83;1.98;;;10.80;96.70;;;9.35;86.55;101294.38;5004696;28;103439;-77
2022/09/22 19:09:43;;;;;;;4.10;2.05;;;10.70;96.90;;;9.20;87.30;101288.97;5002788;28;104968;-77
2022/09/22 19:12:09;;;;;;;5.43;2.20;;;10.60;97.10;;;9.20;87.65;101294.44;4774549;28;115191;-79
2022/09/22 19:15:22;;;;;;;5.07;1.98;;;10.60;97.30;;;9.15;88.29;101300.47;4979904;27;20415;-78
2022/09/22 19:17:48;;;;;;;5.20;2.08;;;10.50;97.60;;;9.05;88.95;101294.47;5014048;28;20123;-78
2022/09/22 19:20:19;;;;;;;4.18;1.67;;;10.50;97.80;;;8.95;89.93;101305.66;5016176;28;20050;-79
2022/09/22 19:22:45;;;;;;;5.07;1.80;;;10.30;98.00;;;8.78;90.50;101307.72;4945977;28;20064;-77
2022/09/22 19:25:12;;;;;;;5.50;2.10;;;10.20;98.30;;;8.60;91.13;101298.06;5017179;28;20048;-77
2022/09/22 19:27:38;;;;;;;4.90;2.33;;;10.00;98.60;;;8.57;92.30;101298.44;5014652;28;20045;-77
2022/09/22 19:30:05;;;;;;;3.95;2.17;;;10.00;99.30;;;8.68;93.35;101307.19;5014786;28;20033;-77
2022/09/22 19:32:31;;;;;;;4.60;2.47;;;10.00;99.60;;;8.71;92.73;101293.19;5016527;28;20037;-78
2022/09/22 19:34:56;;;;;;;4.40;2.38;;;10.10;99.40;;;8.68;92.51;101293.59;5020808;28;20392;-78
2022/09/22 19:37:23;;;;;;;3.40;2.28;;;10.10;99.30;;;8.64;92.28;101287.66;5036939;28;20489;-75
2022/09/22 19:39:49;;;;;;;3.08;1.70;;;10.10;99.10;;;8.66;92.70;101293.75;5016637;28;20489;-77
2022/09/22 19:42:15;;;;;;;4.78;2.15;;;10.10;99.40;;;8.67;92.25;101297.34;5016379;28;20041;-79
2022/09/22 19:44:40;;;;;;;3.90;2.30;;;10.00;99.10;;;8.59;91.84;101284.66;5015227;28;20033;-77
2022/09/22 19:47:06;;;;;;;3.88;1.95;;;10.00;99.00;;;8.57;92.20;101300.34;5013779;28;20103;-77
2022/09/22 19:49:32;;;;;;;5.05;2.38;;;9.90;99.10;;;8.38;92.87;101283.50;5018958;28;20049;-77
2022/09/22 19:51:58;;;;;;;5.18;2.47;;;9.80;99.50;;;8.29;93.55;101284.63;5018611;28;20036;-77
2022/09/22 19:54:23;;;;;;;5.72;2.42;;;9.80;99.70;;;8.27;93.93;101297.56;5014536;28;20500;-77
2022/09/22 19:56:49;;;;;;;5.22;2.55;;;9.70;99.80;;;8.17;94.26;101290.50;5012782;28;20073;-77
2022/09/22 19:59:18;;;;;;;4.00;2.55;;;9.60;99.90;;;8.07;94.18;101293.47;5014295;28;20447;-76
2022/09/22 20:01:46;;;;;;;3.65;2.10;;;9.50;99.90;;;7.86;95.17;101290.66;5017592;28;20072;-76
2022/09/22 20:04:16;;;;;;;4.55;2.60;;;9.30;99.90;;;7.68;97.31;101286.38;5015949;28;20033;-77
2022/09/22 20:06:43;;;;;;;5.35;3.00;;;9.10;99.90;;;7.50;98.47;101286.69;5017459;28;20535;-77
2022/09/22 20:09:10;;;;;;;5.57;2.80;;;8.80;99.90;;;7.30;99.43;101276.28;5014724;28;20045;-77
2022/09/22 20:11:43;;;;;;;5.47;3.13;;;8.70;99.90;;;7.24;100.00;101285.16;5014690;28;20146;-77
2022/09/22 20:14:19;;;;;;;4.95;3.08;;;8.60;99.90;;;7.15;100.00;101283.50;5012173;28;20163;-78
2022/09/22 20:17:05;;;;;;;4.78;3.13;;;8.50;99.90;;;6.74;100.00;101233.88;5011927;28;20049;-78
2022/09/22 20:19:37;;;;;;;5.10;2.83;;;8.40;99.90;;;6.97;100.00;101264.78;5018961;28;20175;-78
2022/09/22 20:22:27;;;;;;;4.38;2.70;;;8.40;99.90;;;7.00;100.00;101259.84;5015586;28;20034;-80
2022/09/22 20:25:00;;;;;;;4.72;3.08;;;8.40;99.90;;;7.17;100.00;101278.75;5006716;28;20033;-79
2022/09/22 20:27:33;;;;;;;4.85;2.88;;;8.50;99.90;;;7.27;100.00;101281.22;4995109;28;20113;-79
2022/09/22 20:30:00;;;;;;;6.13;3.10;;;8.60;99.90;;;7.33;100.00;101281.34;5003793;28;20084;-78
2022/09/22 20:32:33;;;;;;;4.53;2.85;;;8.70;99.90;;;7.27;100.00;101271.22;4998456;28;20080;-77
2022/09/22 20:35:00;;;;;;;4.90;3.10;;;8.80;99.90;;;7.14;100.00;101258.25;4998781;28;20041;-79
2022/09/22 20:37:26;;;;;;;6.68;2.97;;;8.70;99.90;;;7.18;100.00;101273.13;4990610;28;20693;-78
2022/09/22 20:39:53;;;;;;;4.93;3.00;;;8.60;99.90;;;7.25;100.00;101266.97;4988861;28;20508;-78
2022/09/22 20:42:19;;;;;;;6.75;2.28;;;8.70;99.90;;;7.36;100.00;101277.44;4996174;28;20034;-79
2022/09/22 20:44:45;;;;;;;5.70;2.53;;;8.70;99.90;;;7.21;100.00;101258.38;5003538;28;20283;-78
2022/09/22 20:47:17;;;;;;;2.95;2.22;;;8.70;99.90;;;7.34;100.00;101283.03;5000226;28;20042;-77
2022/09/22 20:49:45;;;;;;;5.18;2.17;;;8.70;99.90;;;7.31;100.00;101283.41;5000969;28;20113;-77
2022/09/22 20:52:15;;;;;;;5.70;2.20;;;8.70;99.90;;;7.26;100.00;101274.09;4994083;28;20050;-77
2022/09/22 20:54:42;;;;;;;3.45;2.08;;;8.60;99.90;;;7.16;100.00;101272.47;4998606;28;20045;-77
2022/09/22 20:57:10;;;;;;;3.20;1.83;;;8.60;99.90;;;7.02;100.00;101267.78;4992721;28;20030;-77
2022/09/22 20:59:36;;;;;;;4.67;2.30;;;8.40;99.90;;;6.86;100.00;101276.88;4997564;28;20085;-77
2022/09/22 21:02:02;;;;;;;4.38;2.28;;;8.30;99.90;;;6.67;100.00;101257.31;5004809;28;20145;-78
2022/09/22 21:04:29;;;;;;;5.63;2.40;;;8.20;99.90;;;6.65;100.00;101256.63;5003442;28;20512;-77
2022/09/22 21:06:57;;;;;;;4.17;2.10;;;8.10;99.90;;;6.65;100.00;101256.63;5002930;28;20108;-78
2022/09/22 21:12:07;;;;;;;6.95;2.85;;;8.10;99.90;;;6.56;100.00;101249.53;4993659;28;20042;-78
2022/09/22 21:14:34;;;;;;;4.22;2.42;;;8.00;99.90;;;6.56;100.00;101252.25;4995452;28;20045;-77
2022/09/22 21:17:03;;;;;;;4.20;2.85;;;8.00;99.90;;;6.60;100.00;101248.16;4996569;28;20042;-78
2022/09/22 21:19:31;;;;;;;5.28;2.65;;;8.00;99.90;;;6.62;100.00;101267.81;4993569;28;20034;-78
2022/09/22 21:21:57;;;;;;;3.25;2.10;;;8.00;99.90;;;6.51;100.00;101260.06;4997188;28;20469;-77
2022/09/22 21:24:23;;;;;;;4.15;2.65;;;8.00;99.90;;;6.42;100.00;101264.66;5000916;28;20069;-77
2022/09/22 21:26:48;;;;;;;6.53;2.97;;;7.90;99.90;;;6.26;100.00;101246.59;4994048;28;20537;-78
2022/09/22 21:29:14;;;;;;;8.50;3.38;;;7.80;99.90;;;6.26;100.00;101243.88;4996443;28;20038;-77
2022/09/22 21:31:40;;;;;;;5.47;3.10;;;7.80;99.90;;;6.30;100.00;101261.47;4993602;28;20042;-78
2022/09/22 21:34:06;;;;;;;5.85;3.20;;;7.70;99.90;;;6.30;100.00;101261.47;4989286;28;20041;-77
2022/09/22 21:36:31;;;;;;;3.72;2.63;;;7.70;99.90;;;6.14;100.00;101255.09;4998905;28;20109;-77
2022/09/22 21:38:58;;;;;;;4.43;3.10;;;7.60;99.90;;;5.94;100.00;101251.03;5003948;28;20034;-77
2022/09/22 21:41:27;;;;;;;4.75;2.70;;;7.50;99.90;;;5.81;100.00;101252.38;5010921;28;20049;-75
2022/09/22 21:43:54;;;;;;;6.13;3.25;;;7.30;99.90;;;5.87;100.00;101261.69;4998753;28;20407;-79
2022/09/22 21:46:28;;;;;;;8.55;3.47;;;7.30;99.90;;;5.87;100.00;101262.56;4984246;28;21054;-78
2022/09/22 21:48:57;;;;;;;6.13;3.42;;;7.30;99.90;;;5.77;100.00;101251.03;4996203;28;20099;-77
2022/09/22 21:51:24;;;;;;;4.38;3.13;;;7.20;99.90;;;5.69;100.00;101257.28;4998100;28;20497;-77
2022/09/22 21:53:52;;;;;;;4.60;3.10;;;7.10;99.90;;;5.54;100.00;101259.84;4999390;28;20065;-78
2022/09/22 21:56:21;;;;;;;7.28;3.10;;;7.00;99.90;;;5.44;100.00;101260.03;4993487;28;20036;-77
2022/09/22 21:58:51;;;;;;;5.28;2.97;;;6.90;99.90;;;5.41;100.00;101254.09;4994441;28;20429;-77
2022/09/22 22:01:26;;;;;;;6.97;3.10;;;6.80;99.90;;;5.36;100.00;101248.34;5009074;28;20034;-77
2022/09/22 22:03:55;;;;;;;7.65;3.10;;;6.80;99.90;;;5.35;100.00;101244.78;5001090;28;20034;-78
2022/09/22 22:06:22;;;;;;;5.93;3.40;;;6.80;99.90;;;5.33;100.00;101242.25;4991749;28;20104;-77
2022/09/22 22:08:59;;;;;;;4.50;3.00;;;6.70;99.90;;;5.20;100.00;101231.06;4993540;28;20050;-77
2022/09/22 22:11:30;;;;;;;5.10;3.38;;;6.70;99.90;;;5.30;100.00;101239.03;4990450;28;20030;-78
2022/09/22 22:13:57;;;;;;;4.95;3.42;;;6.80;99.90;;;5.27;100.00;101240.19;4991826;28;20051;-77
2022/09/22 22:16:56;;;;;;;7.00;3.80;;;6.70;99.90;;;5.17;100.00;101228.69;4998290;28;20060;-77
2022/09/22 22:19:25;;;;;;;5.93;3.53;;;6.70;99.90;;;5.22;100.00;101233.63;4997374;28;20401;-78
2022/09/22 22:21:51;;;;;;;6.53;3.88;;;6.70;99.90;;;5.20;100.00;101227.53;4992394;28;20053;-78
2022/09/22 22:24:35;;;;;;;5.78;4.15;;;6.70;99.90;;;5.23;100.00;101222.59;5000394;28;20038;-77
2022/09/22 22:27:06;;;;;;;7.50;3.90;;;6.80;99.90;;;5.32;100.00;101234.28;4999645;28;20033;-77
2022/09/22 22:29:33;;;;;;;7.13;5.00;;;6.80;99.90;;;5.38;100.00;101225.50;5001377;28;20033;-77
2022/09/22 22:32:00;;;;;;;7.65;5.00;;;6.90;99.90;;;5.52;100.00;101233.97;4997259;28;20049;-77
2022/09/22 22:34:26;;;;;;;7.53;4.90;;;7.00;99.90;;;5.56;100.00;101225.31;4991920;28;20033;-77
2022/09/22 22:36:53;;;;;;;8.63;5.70;;;7.10;99.90;;;5.66;100.00;101224.31;5002056;28;20068;-77
2022/09/22 22:39:19;;;;;;;9.32;5.55;;;7.20;99.90;;;5.74;100.00;101217.03;5003668;28;20038;-77
2022/09/22 22:41:47;;;;;;;7.30;4.60;;;7.30;99.90;;;5.85;100.00;101215.84;5002789;28;20034;-79
2022/09/22 22:44:15;;;;;;;;;;;7.40;99.90;;;6.08;100.00;101223.25;5001918;28;20042;-77
2022/09/22 22:46:40;;;;;;;7.82;4.90;;;7.50;99.90;;;6.04;100.00;101211.09;5002574;28;20214;-76
2022/09/22 22:49:06;;;;;;;6.72;5.03;;;7.60;99.90;;;6.08;100.00;101201.59;4991526;28;20084;-76
2022/09/22 22:51:36;;;;;;;7.30;5.00;;;7.60;99.90;;;6.25;100.00;101228.63;4988906;28;20038;-77
2022/09/22 22:54:02;;;;;;;7.03;5.00;;;7.70;99.90;;;6.26;100.00;101216.78;4995326;28;20128;-77
2022/09/22 22:56:30;;;;;;;7.22;4.82;;;7.80;99.90;;;6.36;100.00;101217.41;5000874;28;20030;-77
2022/09/22 22:58:56;;;;;;;9.27;5.90;;;7.80;99.90;;;6.43;100.00;101218.44;4997976;28;20495;-77
2022/09/22 23:01:29;;;;;;;6.35;5.32;;;7.90;99.90;;;6.54;100.00;101224.47;5002036;28;20038;-77
2022/09/22 23:04:00;;;;;;;7.10;4.93;;;8.00;99.90;;;6.57;100.00;101207.84;4994742;28;20457;-77
2022/09/22 23:06:30;;;;;;;6.63;4.85;;;8.10;99.90;;;6.70;100.00;101224.41;4997316;28;20500;-77
2022/09/22 23:08:56;;;;;;;5.47;3.88;;;8.20;99.90;;;6.75;100.00;101219.28;4992751;28;20127;-77
2022/09/22 23:11:26;;;;;;;7.53;3.60;;;8.20;99.90;;;6.83;100.00;101212.13;4989125;28;20542;-78
2022/09/22 23:13:58;;;;;;;5.70;3.63;;;8.20;99.90;;;6.93;100.00;101211.91;4999225;28;20500;-77
2022/09/22 23:16:27;;;;;;;4.63;3.15;;;8.30;99.90;;;6.96;100.00;101201.56;5003193;28;20021;-78
2022/09/22 23:18:56;;;;;;;6.90;3.50;;;8.40;99.90;;;6.81;100.00;101168.94;4996533;28;20450;-76
2022/09/22 23:21:22;;;;;;;4.72;3.50;;;8.40;99.90;;;7.01;100.00;101206.41;4992584;28;20507;-77
2022/09/22 23:23:49;;;;;;;6.57;3.47;;;8.40;99.90;;;6.98;100.00;101204.94;4991911;28;20100;-77
2022/09/22 23:26:16;;;;;;;5.03;3.20;;;8.50;99.90;;;6.97;100.00;101199.66;4994294;28;20608;-77
2022/09/22 23:28:43;;;;;;;5.53;3.00;;;8.40;99.90;;;6.92;100.00;101200.22;4996200;28;20038;-77
2022/09/22 23:31:13;;;;;;;5.25;2.97;;;8.30;99.90;;;6.86;100.00;101198.19;4998254;28;20049;-77
2022/09/22 23:33:44;;;;;;;4.82;3.30;;;8.30;99.90;;;6.80;100.00;101188.94;5003021;28;20030;-76
2022/09/22 23:36:18;;;;;;;4.88;3.13;;;8.20;99.90;;;6.73;100.00;101185.22;4990069;28;20041;-77
2022/09/22 23:38:44;;;;;;;5.00;2.97;;;8.20;99.90;;;6.65;100.00;101190.69;4992937;28;20790;-76
2022/09/22 23:41:12;;;;;;;3.92;3.10;;;8.10;99.90;;;6.47;100.00;101184.53;4996503;28;20038;-77
2022/09/22 23:43:38;;;;;;;6.57;3.00;;;7.90;99.90;;;6.28;100.00;101165.97;4995761;28;20504;-77
2022/09/22 23:46:06;;;;;;;4.97;3.30;;;7.70;99.90;;;6.27;100.00;101175.13;4997496;28;20038;-76
2022/09/22 23:48:33;;;;;;;3.35;2.47;;;7.70;99.90;;;6.18;100.00;101180.56;5002769;28;20033;-78
2022/09/22 23:51:00;;;;;;;5.82;3.08;;;7.60;99.90;;;6.05;100.00;101166.72;4994120;28;20034;-78
2022/09/22 23:53:35;;;;;;;5.22;3.15;;;7.50;99.90;;;6.06;100.00;101181.94;4983723;28;20092;-76
2022/09/22 23:56:04;;;;;;;5.03;3.00;;;7.50;99.90;;;5.98;100.00;101171.13;4994101;28;20143;-77
2022/09/22 23:58:30;;;;;;;4.68;2.97;;;7.40;99.90;;;5.92;100.00;101169.94;4995839;28;20242;-77
